Bristol, Indiana
Current Conditions -  °F | °C
As of 9:50 AM on Saturday 25 Oct 2014 (Local Time) from KEKM Reporting Station
Haze Haze  
Wind Chill: 55°   Ceiling: 600
Heat Index: 55°   Visibility: 3mi
Dew Point: 54°   Wind: 8mph
Humidity: 94%   Direction: 270°W
Pressure: 29.92"   Gusts: NA
Location:  41.72°N, 85.82°W
Report Text: KEKM 251350Z 27007KT 03SM BR OVC006 13/12 A2992 RMK AO2
Loading
Personal Weather Stations






























Interactive Weather Map
Tropical Storm Tracking
New forecast layout! Learn more

10-Day Weather Forecast

Advertisements
Track Severe Weather on mobile